Time;durP1;ratioP1;P1;durP2;ratioP2;P2;SDS_P1;SDS_P2;PMS_P1;PMS_P2;Temp;Humidity;BMP_temperature;BMP_pressure;BME280_temperature;BME280_humidity;BME280_pressure;Samples;Min_cycle;Max_cycle;Signal;HPM_P1;HPM_P2
2023/02/11 09:00:35;;;;;;;;;19.75;17.50;;;;;;;;4326405;32;51150;-46
2023/02/11 09:03:19;;;;;;;;;21.00;18.75;;;;;;;;5074902;28;51066;-44
2023/02/11 09:06:08;;;;;;;;;18.25;18.25;;;;;;;;5073368;28;51244;-46
2023/02/11 09:08:54;;;;;;;;;26.25;20.75;;;;;;;;5074248;28;51070;-44
2023/02/11 09:11:40;;;;;;;;;21.25;18.50;;;;;;;;5073604;28;51492;-46
2023/02/11 09:14:24;;;;;;;;;23.25;20.50;;;;;;;;5073539;28;51117;-45
2023/02/11 09:17:09;;;;;;;;;19.25;17.25;;;;;;;;5074624;28;51181;-48
2023/02/11 09:19:53;;;;;;;;;17.75;17.75;;;;;;;;5073937;28;51476;-45
2023/02/11 09:22:37;;;;;;;;;14.25;10.75;;;;;;;;5073762;28;51551;-45
2023/02/11 09:25:22;;;;;;;;;23.00;22.00;;;;;;;;5074000;28;51109;-47
2023/02/11 09:28:07;;;;;;;;;19.50;17.25;;;;;;;;5074282;28;51235;-44
2023/02/11 09:30:52;;;;;;;;;22.00;18.50;;;;;;;;5072391;28;51558;-45
2023/02/11 09:33:51;;;;;;;;;25.75;21.75;;;;;;;;5007688;28;51165;-46
2023/02/11 09:36:37;;;;;;;;;25.75;19.75;;;;;;;;5002033;28;51388;-44
2023/02/11 09:39:21;;;;;;;;;19.50;17.25;;;;;;;;5008056;28;52247;-44
2023/02/11 09:42:18;;;;;;;;;20.75;19.00;;;;;;;;5008759;28;51137;-45
2023/02/11 09:45:04;;;;;;;;;21.25;16.00;;;;;;;;5006488;28;51429;-47
2023/02/11 09:48:08;;;;;;;;;25.25;19.00;;;;;;;;5003087;28;51350;-47
2023/02/11 09:50:54;;;;;;;;;23.50;20.25;;;;;;;;5002925;28;51189;-45
2023/02/11 09:53:41;;;;;;;;;26.00;25.25;;;;;;;;5006994;28;51156;-43
2023/02/11 09:56:27;;;;;;;;;29.25;25.00;;;;;;;;5004465;28;51244;-43
2023/02/11 09:59:15;;;;;;;;;22.00;18.75;;;;;;;;5005971;28;51418;-45
2023/02/11 10:02:08;;;;;;;;;26.50;22.75;;;;;;;;4995806;28;51226;-46
2023/02/11 10:04:53;;;;;;;;;14.50;12.00;;;;;;;;4980424;28;51226;-45
2023/02/11 10:07:43;;;;;;;;;23.00;19.00;;;;;;;;4994749;28;51186;-46
2023/02/11 10:13:30;;;;;;;;;23.50;21.50;;;;;;;;5060018;28;51158;-46
2023/02/11 10:16:30;;;;;;;;;16.75;15.00;;;;;;;;5059034;28;51087;-45
2023/02/11 10:19:29;;;;;;;;;22.25;19.50;;;;;;;;5059782;28;51121;-46
2023/02/11 10:22:29;;;;;;;;;19.75;16.75;;;;;;;;5058146;28;51185;-46
2023/02/11 10:25:20;;;;;;;;;16.25;11.75;;;;;;;;5056720;28;51097;-45
2023/02/11 10:28:18;;;;;;;;;24.75;22.00;;;;;;;;5059062;28;51102;-44
2023/02/11 10:31:17;;;;;;;;;18.50;18.50;;;;;;;;5059097;28;51348;-47
2023/02/11 10:34:04;;;;;;;;;27.00;20.00;;;;;;;;5052940;28;51160;-45
2023/02/11 10:36:48;;;;;;;;;19.75;16.75;;;;;;;;5057789;28;51343;-44
2023/02/11 10:39:33;;;;;;;;;24.50;20.00;;;;;;;;5059162;28;51500;-46
2023/02/11 10:42:17;;;;;;;;;23.00;18.75;;;;;;;;5058146;28;51173;-43
2023/02/11 10:47:49;;;;;;;;;20.50;19.50;;;;;;;;5015118;28;52818;-45
2023/02/11 10:50:33;;;;;;;;;18.00;15.50;;;;;;;;5016005;28;51176;-48
2023/02/11 10:53:21;;;;;;;;;21.50;18.00;;;;;;;;5016413;28;51432;-44
2023/02/11 10:56:06;;;;;;;;;20.75;17.50;;;;;;;;5015830;28;51121;-44
2023/02/11 10:58:58;;;;;;;;;20.25;17.50;;;;;;;;5016119;28;51181;-45
2023/02/11 11:01:47;;;;;;;;;19.75;18.50;;;;;;;;5015603;28;51158;-45
2023/02/11 11:04:39;;;;;;;;;24.00;18.50;;;;;;;;5016399;28;51443;-43
2023/02/11 11:07:30;;;;;;;;;22.75;18.50;;;;;;;;5014651;28;51312;-46
2023/02/11 11:10:28;;;;;;;;;18.00;16.50;;;;;;;;5014458;28;51129;-43
2023/02/11 11:13:33;;;;;;;;;18.00;17.75;;;;;;;;5014187;28;51640;-46
2023/02/11 11:16:19;;;;;;;;;22.00;18.75;;;;;;;;5015647;28;51203;-44
2023/02/11 11:19:26;;;;;;;;;32.00;29.00;;;;;;;;5000081;28;51666;-48
2023/02/11 11:22:18;;;;;;;;;19.25;18.50;;;;;;;;5015118;28;51167;-46
2023/02/11 11:25:02;;;;;;;;;46.50;36.50;;;;;;;;5037654;28;51049;-47
2023/02/11 11:27:49;;;;;;;;;23.00;19.75;;;;;;;;5056993;28;51435;-46
2023/02/11 11:30:38;;;;;;;;;23.00;16.75;;;;;;;;5058214;28;51586;-45
2023/02/11 11:33:25;;;;;;;;;21.75;17.75;;;;;;;;5058036;28;51426;-46
2023/02/11 11:36:11;;;;;;;;;19.50;15.75;;;;;;;;5058174;28;51136;-45
2023/02/11 11:38:57;;;;;;;;;17.50;13.50;;;;;;;;5056646;28;50992;-47
2023/02/11 11:41:48;;;;;;;;;19.25;15.75;;;;;;;;5057941;28;51139;-45
2023/02/11 11:44:36;;;;;;;;;16.75;15.50;;;;;;;;5055998;28;51308;-47
2023/02/11 11:47:26;;;;;;;;;22.25;15.75;;;;;;;;5042613;28;51250;-44
2023/02/11 11:50:13;;;;;;;;;20.25;14.75;;;;;;;;5057035;28;51224;-46
2023/02/11 11:53:14;;;;;;;;;20.25;15.25;;;;;;;;5057706;28;51255;-47
2023/02/11 11:56:08;;;;;;;;;17.00;14.75;;;;;;;;5055047;28;51178;-45
2023/02/11 11:58:53;;;;;;;;;17.50;16.00;;;;;;;;5051187;28;51090;-44
2023/02/11 12:01:47;;;;;;;;;19.25;16.75;;;;;;;;5037663;28;51390;-46
2023/02/11 12:04:31;;;;;;;;;18.25;14.25;;;;;;;;5037274;28;51203;-48
2023/02/11 12:07:18;;;;;;;;;19.00;16.00;;;;;;;;5037760;28;51180;-47
2023/02/11 12:10:11;;;;;;;;;21.00;18.25;;;;;;;;5035748;28;51423;-45
2023/02/11 12:13:14;;;;;;;;;19.75;17.75;;;;;;;;5036866;28;51081;-44
2023/02/11 12:16:16;;;;;;;;;17.75;15.25;;;;;;;;5037585;28;51175;-47
2023/02/11 12:19:19;;;;;;;;;17.75;15.50;;;;;;;;5036999;28;51309;-47
2023/02/11 12:22:03;;;;;;;;;18.00;15.00;;;;;;;;5036013;28;51522;-44
2023/02/11 12:25:07;;;;;;;;;15.75;15.00;;;;;;;;5037139;28;51076;-45
2023/02/11 12:28:03;;;;;;;;;18.25;15.75;;;;;;;;5020503;28;51314;-41
2023/02/11 12:30:50;;;;;;;;;21.00;17.50;;;;;;;;5039027;28;51284;-44
2023/02/11 12:33:50;;;;;;;;;17.25;15.75;;;;;;;;5039234;28;51492;-44
2023/02/11 12:36:54;;;;;;;;;19.25;17.25;;;;;;;;5039372;28;51183;-43
2023/02/11 12:39:42;;;;;;;;;15.00;15.00;;;;;;;;5039217;28;51173;-44
2023/02/11 12:45:45;;;;;;;;;23.75;18.25;;;;;;;;5039406;28;51009;-43
2023/02/11 12:48:32;;;;;;;;;23.00;18.25;;;;;;;;5039388;28;51474;-45
2023/02/11 12:51:20;;;;;;;;;19.00;17.25;;;;;;;;5038893;28;51208;-43
2023/02/11 12:54:19;;;;;;;;;20.75;17.25;;;;;;;;5038641;28;51176;-44
2023/02/11 12:57:11;;;;;;;;;17.25;16.00;;;;;;;;5039140;28;51180;-43
2023/02/11 13:00:14;;;;;;;;;22.25;18.00;;;;;;;;5054127;28;51141;-43
2023/02/11 13:03:05;;;;;;;;;18.50;16.75;;;;;;;;5059552;28;51292;-45
2023/02/11 13:05:52;;;;;;;;;21.25;18.00;;;;;;;;5059248;28;51039;-43
2023/02/11 13:08:42;;;;;;;;;17.00;17.00;;;;;;;;5059412;28;51007;-44
2023/02/11 13:11:28;;;;;;;;;19.25;18.50;;;;;;;;5058806;28;51471;-44
2023/02/11 13:14:21;;;;;;;;;21.75;19.00;;;;;;;;5059032;28;50989;-44
2023/02/11 13:17:11;;;;;;;;;20.25;16.75;;;;;;;;5059016;28;51114;-45
2023/02/11 13:20:02;;;;;;;;;17.00;15.25;;;;;;;;5059411;28;51484;-44
2023/02/11 13:22:56;;;;;;;;;22.50;18.50;;;;;;;;5059159;28;51541;-43
2023/02/11 13:25:43;;;;;;;;;18.25;17.50;;;;;;;;5059031;28;51158;-43
2023/02/11 13:28:41;;;;;;;;;22.75;19.25;;;;;;;;5058783;28;51004;-46
2023/02/11 13:31:27;;;;;;;;;23.50;20.50;;;;;;;;5058681;28;51157;-45
2023/02/11 13:34:44;;;;;;;;;21.25;19.00;;;;;;;;5059359;28;51060;-43
2023/02/11 13:37:35;;;;;;;;;20.00;19.00;;;;;;;;5019919;28;51180;-48
2023/02/11 13:40:21;;;;;;;;;21.25;19.25;;;;;;;;5062713;28;51106;-43
2023/02/11 13:43:18;;;;;;;;;20.50;14.50;;;;;;;;5062912;28;51171;-46
2023/02/11 13:46:04;;;;;;;;;26.75;20.25;;;;;;;;5063129;28;51159;-46
2023/02/11 13:48:51;;;;;;;;;20.75;18.50;;;;;;;;5062321;28;51557;-45
2023/02/11 13:51:37;;;;;;;;;21.00;16.50;;;;;;;;5062393;28;51322;-44
2023/02/11 13:54:32;;;;;;;;;20.50;16.00;;;;;;;;5056334;28;51467;-47
2023/02/11 13:57:19;;;;;;;;;23.25;19.50;;;;;;;;5057535;28;51103;-43
2023/02/11 14:00:23;;;;;;;;;21.25;14.25;;;;;;;;5062529;28;51094;-42
2023/02/11 14:09:19;;;;;;;;;18.75;16.75;;;;;;;;5061916;28;51091;-44
2023/02/11 14:12:21;;;;;;;;;18.00;13.00;;;;;;;;5062482;28;51187;-43
2023/02/11 14:15:05;;;;;;;;;20.50;17.75;;;;;;;;5062090;28;51338;-45
2023/02/11 14:17:51;;;;;;;;;17.00;13.75;;;;;;;;5061655;28;51127;-43
2023/02/11 14:20:49;;;;;;;;;19.75;11.25;;;;;;;;4999590;28;51452;-42
2023/02/11 14:23:36;;;;;;;;;19.75;17.50;;;;;;;;4999543;28;51184;-43
2023/02/11 14:26:20;;;;;;;;;19.00;16.00;;;;;;;;4999960;28;51156;-44
2023/02/11 14:29:16;;;;;;;;;22.25;17.50;;;;;;;;4999682;28;51122;-43
2023/02/11 14:32:12;;;;;;;;;24.75;17.25;;;;;;;;4999511;28;51456;-43
2023/02/11 14:35:36;;;;;;;;;22.25;16.25;;;;;;;;4999203;28;51110;-44
2023/02/11 14:38:23;;;;;;;;;18.75;15.75;;;;;;;;4941093;28;51119;-44
2023/02/11 14:41:15;;;;;;;;;17.75;16.50;;;;;;;;4940610;28;51480;-47
2023/02/11 14:44:03;;;;;;;;;20.00;17.00;;;;;;;;4994740;28;51065;-45
2023/02/11 14:46:49;;;;;;;;;21.00;17.50;;;;;;;;4999039;28;51600;-44
2023/02/11 14:49:36;;;;;;;;;16.25;15.00;;;;;;;;4998998;28;51277;-45
2023/02/11 14:52:28;;;;;;;;;16.00;13.75;;;;;;;;4999342;28;51094;-44
2023/02/11 14:55:22;;;;;;;;;19.00;16.50;;;;;;;;4998987;28;51072;-46
2023/02/11 14:58:12;;;;;;;;;17.00;14.50;;;;;;;;5060653;28;51523;-46
2023/02/11 15:01:05;;;;;;;;;21.50;16.25;;;;;;;;5060823;28;51206;-46
2023/02/11 15:03:49;;;;;;;;;18.25;16.00;;;;;;;;5061160;28;51146;-45
2023/02/11 15:06:38;;;;;;;;;17.50;16.25;;;;;;;;5058801;28;51534;-45
2023/02/11 15:09:28;;;;;;;;;18.00;16.25;;;;;;;;5060335;28;51022;-45
2023/02/11 15:12:18;;;;;;;;;22.50;18.25;;;;;;;;5056229;28;51427;-47
2023/02/11 15:17:49;;;;;;;;;20.50;17.25;;;;;;;;5038355;28;51135;-45
2023/02/11 15:20:34;;;;;;;;;15.00;14.25;;;;;;;;5037788;28;51213;-46
2023/02/11 15:23:24;;;;;;;;;20.50;16.00;;;;;;;;5038383;28;51281;-44
2023/02/11 15:26:11;;;;;;;;;28.75;17.25;;;;;;;;5034584;28;51546;-43
2023/02/11 15:28:55;;;;;;;;;19.75;17.00;;;;;;;;5038254;28;51133;-44
2023/02/11 15:31:40;;;;;;;;;21.75;17.25;;;;;;;;5038272;28;51164;-43
2023/02/11 15:34:24;;;;;;;;;18.25;16.00;;;;;;;;5036595;28;51233;-44
2023/02/11 15:37:13;;;;;;;;;20.75;17.25;;;;;;;;5033128;28;51653;-44
2023/02/11 15:40:08;;;;;;;;;19.50;16.50;;;;;;;;5018356;28;52168;-47
2023/02/11 15:42:55;;;;;;;;;21.25;18.25;;;;;;;;5019355;28;51335;-46
2023/02/11 15:45:51;;;;;;;;;21.00;17.75;;;;;;;;5025589;28;51261;-46
2023/02/11 15:48:37;;;;;;;;;25.25;20.00;;;;;;;;5026561;28;51321;-47
2023/02/11 15:51:24;;;;;;;;;17.50;15.25;;;;;;;;5025131;28;51264;-47
2023/02/11 15:54:18;;;;;;;;;19.75;16.75;;;;;;;;5028660;28;51339;-49
2023/02/11 15:57:04;;;;;;;;;21.50;16.50;;;;;;;;5049421;28;51192;-45
2023/02/11 15:59:51;;;;;;;;;20.25;17.25;;;;;;;;5050269;28;51208;-44
2023/02/11 16:02:37;;;;;;;;;19.75;18.25;;;;;;;;5048993;28;51361;-45
2023/02/11 16:05:35;;;;;;;;;16.25;10.75;;;;;;;;5049733;28;51209;-44
2023/02/11 16:08:21;;;;;;;;;20.00;16.50;;;;;;;;5052663;28;51070;-44
2023/02/11 16:11:07;;;;;;;;;21.00;15.75;;;;;;;;5051060;28;51217;-46
2023/02/11 16:13:52;;;;;;;;;21.75;17.00;;;;;;;;5053045;28;51372;-43
2023/02/11 16:16:37;;;;;;;;;21.25;18.25;;;;;;;;5050528;28;51129;-47
2023/02/11 16:19:23;;;;;;;;;18.75;17.75;;;;;;;;5051776;28;52028;-44
2023/02/11 16:22:10;;;;;;;;;20.50;19.00;;;;;;;;5053193;28;51460;-42
2023/02/11 16:24:56;;;;;;;;;24.25;17.75;;;;;;;;5049022;28;51316;-42
2023/02/11 16:27:41;;;;;;;;;22.50;17.75;;;;;;;;5052614;28;51413;-45
2023/02/11 16:30:32;;;;;;;;;17.25;16.00;;;;;;;;5053150;28;51253;-47
2023/02/11 16:33:16;;;;;;;;;18.25;16.75;;;;;;;;5052097;28;51113;-45
2023/02/11 16:36:05;;;;;;;;;19.50;16.00;;;;;;;;5053866;28;51217;-43
2023/02/11 16:38:49;;;;;;;;;18.00;16.50;;;;;;;;5050065;28;51542;-43
2023/02/11 16:41:34;;;;;;;;;18.00;16.25;;;;;;;;5052908;28;51229;-44
2023/02/11 16:44:19;;;;;;;;;24.50;18.75;;;;;;;;5050756;28;51605;-45
2023/02/11 16:47:05;;;;;;;;;18.75;18.00;;;;;;;;5053403;28;51354;-44
2023/02/11 16:49:49;;;;;;;;;17.25;16.25;;;;;;;;5053634;28;51160;-45
2023/02/11 16:52:35;;;;;;;;;22.00;19.75;;;;;;;;5051532;28;51440;-44
2023/02/11 16:55:20;;;;;;;;;22.25;19.25;;;;;;;;5052840;28;51145;-46
2023/02/11 16:58:05;;;;;;;;;20.00;18.50;;;;;;;;5051410;28;53474;-46
2023/02/11 17:00:50;;;;;;;;;23.50;20.50;;;;;;;;5051373;28;51134;-45
2023/02/11 17:03:38;;;;;;;;;18.25;15.50;;;;;;;;5051888;28;51749;-43
2023/02/11 17:06:23;;;;;;;;;20.75;19.25;;;;;;;;5048548;28;51148;-47
2023/02/11 17:09:09;;;;;;;;;21.00;18.50;;;;;;;;5053542;28;51119;-45
2023/02/11 17:11:53;;;;;;;;;19.00;19.00;;;;;;;;5057072;28;51212;-43
2023/02/11 17:14:38;;;;;;;;;22.75;19.25;;;;;;;;5057135;28;51583;-45
2023/02/11 17:17:22;;;;;;;;;21.25;18.50;;;;;;;;5055270;28;51517;-44
2023/02/11 17:20:08;;;;;;;;;17.00;12.00;;;;;;;;5056788;28;51205;-44
2023/02/11 17:22:52;;;;;;;;;26.25;20.75;;;;;;;;5053544;28;51530;-44
2023/02/11 17:25:37;;;;;;;;;20.50;17.50;;;;;;;;5056486;28;51342;-44
2023/02/11 17:28:21;;;;;;;;;25.75;21.25;;;;;;;;5053964;28;51623;-46
2023/02/11 17:31:06;;;;;;;;;36.25;30.75;;;;;;;;5056333;28;51137;-44
2023/02/11 17:33:50;;;;;;;;;34.25;29.75;;;;;;;;5055203;28;51288;-47
2023/02/11 17:36:35;;;;;;;;;29.25;21.50;;;;;;;;5055797;28;51140;-46
2023/02/11 17:39:19;;;;;;;;;34.75;27.00;;;;;;;;5054618;28;51152;-46
2023/02/11 17:42:04;;;;;;;;;26.75;24.25;;;;;;;;5048354;28;51720;-45
2023/02/11 17:44:48;;;;;;;;;56.00;46.75;;;;;;;;5049479;28;51221;-47
2023/02/11 17:47:33;;;;;;;;;41.00;33.25;;;;;;;;5049607;28;51256;-43
2023/02/11 17:50:17;;;;;;;;;37.50;30.00;;;;;;;;5049211;28;51177;-44
2023/02/11 17:53:02;;;;;;;;;24.75;20.75;;;;;;;;5048585;28;51529;-47
2023/02/11 17:55:46;;;;;;;;;54.25;40.75;;;;;;;;5047448;28;51395;-43
2023/02/11 17:58:31;;;;;;;;;41.50;32.50;;;;;;;;5054405;28;51132;-44
2023/02/11 18:01:16;;;;;;;;;32.25;29.00;;;;;;;;5050567;28;51146;-45
2023/02/11 18:04:00;;;;;;;;;28.00;22.75;;;;;;;;5052297;28;51194;-44
2023/02/11 18:06:45;;;;;;;;;25.00;21.75;;;;;;;;5050456;28;51532;-44
2023/02/11 18:09:29;;;;;;;;;27.00;21.00;;;;;;;;5049608;28;51321;-46
2023/02/11 18:12:16;;;;;;;;;24.50;23.00;;;;;;;;5046891;28;51067;-44
2023/02/11 18:15:00;;;;;;;;;23.00;19.75;;;;;;;;5057066;28;51246;-44
2023/02/11 18:17:45;;;;;;;;;21.75;19.75;;;;;;;;5048708;28;51104;-46
2023/02/11 18:20:29;;;;;;;;;22.25;20.25;;;;;;;;5045699;28;51174;-47
2023/02/11 18:23:13;;;;;;;;;21.50;21.50;;;;;;;;5046613;28;51305;-46
2023/02/11 18:25:58;;;;;;;;;27.50;23.25;;;;;;;;5049828;28;51201;-45
2023/02/11 18:28:42;;;;;;;;;30.25;25.75;;;;;;;;5052814;28;51186;-47
2023/02/11 18:31:27;;;;;;;;;26.75;22.50;;;;;;;;5050469;28;51583;-48
2023/02/11 18:34:11;;;;;;;;;30.75;23.25;;;;;;;;5056575;28;52172;-43
2023/02/11 18:36:55;;;;;;;;;35.25;26.75;;;;;;;;5048399;28;51166;-45
2023/02/11 18:39:41;;;;;;;;;27.75;23.00;;;;;;;;5054560;28;51219;-44
2023/02/11 18:45:13;;;;;;;;;25.25;20.00;;;;;;;;4997359;28;51292;-44
2023/02/11 18:48:00;;;;;;;;;25.50;20.00;;;;;;;;4999476;28;51024;-46
2023/02/11 18:50:45;;;;;;;;;30.25;22.25;;;;;;;;4998311;28;51185;-45
2023/02/11 18:53:29;;;;;;;;;31.25;23.50;;;;;;;;4999254;28;51236;-46
2023/02/11 18:56:15;;;;;;;;;21.75;20.75;;;;;;;;4998896;28;51228;-43
2023/02/11 18:59:00;;;;;;;;;22.75;20.25;;;;;;;;5000381;28;51137;-47
2023/02/11 19:01:45;;;;;;;;;27.50;22.00;;;;;;;;5001037;28;51376;-44
2023/02/11 19:04:50;;;;;;;;;24.50;18.50;;;;;;;;4935602;28;51225;-46
2023/02/11 19:07:51;;;;;;;;;24.00;23.25;;;;;;;;4895753;28;51254;-45
2023/02/11 19:10:38;;;;;;;;;17.25;15.25;;;;;;;;4893427;28;51132;-45
2023/02/11 19:13:22;;;;;;;;;26.25;19.75;;;;;;;;4897716;28;51248;-57
2023/02/11 19:16:07;;;;;;;;;25.25;20.00;;;;;;;;4894666;28;51251;-58
2023/02/11 19:18:51;;;;;;;;;21.50;20.00;;;;;;;;4893985;28;51254;-58
2023/02/11 19:21:36;;;;;;;;;26.00;22.50;;;;;;;;4899730;28;51262;-58
2023/02/11 19:24:20;;;;;;;;;25.50;21.00;;;;;;;;4921793;28;51154;-58
2023/02/11 19:27:04;;;;;;;;;21.25;20.25;;;;;;;;4920125;28;51156;-58
2023/02/11 19:29:49;;;;;;;;;25.25;20.50;;;;;;;;4918026;28;51270;-58
2023/02/11 19:32:33;;;;;;;;;17.00;15.75;;;;;;;;4915336;28;52966;-59
2023/02/11 19:35:20;;;;;;;;;22.00;18.50;;;;;;;;4937840;28;51128;-58
2023/02/11 19:38:05;;;;;;;;;24.50;21.00;;;;;;;;4973830;28;51125;-59
2023/02/11 19:40:54;;;;;;;;;21.25;20.00;;;;;;;;4976736;28;51557;-58
2023/02/11 19:43:39;;;;;;;;;23.25;21.25;;;;;;;;5054067;28;52128;-58
2023/02/11 19:46:24;;;;;;;;;20.50;19.00;;;;;;;;5056872;28;51172;-58
2023/02/11 19:49:08;;;;;;;;;20.75;17.75;;;;;;;;5051112;28;51182;-58
2023/02/11 19:51:54;;;;;;;;;23.00;20.00;;;;;;;;5051040;28;51422;-58
2023/02/11 19:54:38;;;;;;;;;27.75;24.50;;;;;;;;5054146;28;51436;-58
2023/02/11 19:57:23;;;;;;;;;26.25;21.50;;;;;;;;5053676;28;51541;-58
2023/02/11 20:00:09;;;;;;;;;26.50;23.50;;;;;;;;5054593;28;51188;-58
2023/02/11 20:02:54;;;;;;;;;22.75;19.50;;;;;;;;5052242;28;51177;-59
2023/02/11 20:05:39;;;;;;;;;26.25;21.75;;;;;;;;5055763;28;51110;-58
2023/02/11 20:08:23;;;;;;;;;23.00;20.00;;;;;;;;5057379;27;51385;-58
2023/02/11 20:11:11;;;;;;;;;29.75;23.00;;;;;;;;5057554;27;51552;-58
2023/02/11 20:13:56;;;;;;;;;31.25;19.75;;;;;;;;5056939;28;51007;-58
2023/02/11 20:16:40;;;;;;;;;25.25;20.75;;;;;;;;5057389;28;51169;-58
2023/02/11 20:19:25;;;;;;;;;23.75;20.25;;;;;;;;5056956;27;51073;-58
2023/02/11 20:22:10;;;;;;;;;20.25;19.25;;;;;;;;5059603;27;51178;-58
2023/02/11 20:24:54;;;;;;;;;24.25;19.25;;;;;;;;5056910;28;51519;-58
2023/02/11 20:27:39;;;;;;;;;25.25;19.75;;;;;;;;5056439;28;51386;-58
2023/02/11 20:30:23;;;;;;;;;21.50;20.50;;;;;;;;5052477;27;51119;-58
2023/02/11 20:33:07;;;;;;;;;25.75;20.75;;;;;;;;5057675;28;51207;-58
2023/02/11 20:35:59;;;;;;;;;25.25;19.75;;;;;;;;5057540;27;51173;-58
2023/02/11 20:38:43;;;;;;;;;21.50;17.75;;;;;;;;5057577;27;52017;-58
2023/02/11 20:41:33;;;;;;;;;25.25;20.25;;;;;;;;5058342;27;51267;-58
2023/02/11 20:44:17;;;;;;;;;22.75;18.00;;;;;;;;5056432;27;51545;-58
2023/02/11 20:47:01;;;;;;;;;23.75;20.75;;;;;;;;5056892;28;51518;-58
2023/02/11 20:49:46;;;;;;;;;24.75;20.75;;;;;;;;5057131;28;51081;-58
2023/02/11 20:52:31;;;;;;;;;22.75;20.50;;;;;;;;5057343;28;51228;-59
2023/02/11 20:55:15;;;;;;;;;27.50;19.00;;;;;;;;5056323;28;51414;-58
2023/02/11 20:57:59;;;;;;;;;22.00;19.00;;;;;;;;5057214;28;51269;-58
2023/02/11 21:00:44;;;;;;;;;23.50;20.50;;;;;;;;5037811;28;51129;-58
2023/02/11 21:03:28;;;;;;;;;23.75;21.50;;;;;;;;5022781;28;51010;-58
2023/02/11 21:06:13;;;;;;;;;25.50;20.75;;;;;;;;5036674;28;51541;-58
2023/02/11 21:08:57;;;;;;;;;23.75;22.25;;;;;;;;5038755;28;51207;-58
2023/02/11 21:11:42;;;;;;;;;25.00;20.50;;;;;;;;5037653;28;51108;-58
2023/02/11 21:14:26;;;;;;;;;23.50;20.00;;;;;;;;5037381;28;51236;-57
2023/02/11 21:17:11;;;;;;;;;35.25;23.25;;;;;;;;5039683;28;51104;-58
2023/02/11 21:19:55;;;;;;;;;27.50;21.75;;;;;;;;5040759;28;51450;-58
2023/02/11 21:22:40;;;;;;;;;28.00;21.50;;;;;;;;5036239;28;51567;-58
2023/02/11 21:25:25;;;;;;;;;27.25;24.50;;;;;;;;5042502;28;51143;-57
2023/02/11 21:28:09;;;;;;;;;27.00;21.75;;;;;;;;5043852;28;51316;-58
2023/02/11 21:30:55;;;;;;;;;22.00;20.50;;;;;;;;5035596;28;51248;-58
2023/02/11 21:33:39;;;;;;;;;27.75;21.00;;;;;;;;5035153;28;51335;-58
2023/02/11 21:36:24;;;;;;;;;23.75;22.50;;;;;;;;5038460;28;51208;-58
2023/02/11 21:39:08;;;;;;;;;24.25;20.25;;;;;;;;5035824;28;51099;-58
2023/02/11 21:41:54;;;;;;;;;18.00;18.00;;;;;;;;5035971;28;51335;-58
2023/02/11 21:44:39;;;;;;;;;24.75;21.50;;;;;;;;5037504;28;51460;-58
2023/02/11 21:47:23;;;;;;;;;21.75;17.25;;;;;;;;5036363;28;51059;-58
2023/02/11 21:50:08;;;;;;;;;22.00;19.25;;;;;;;;5035596;28;51114;-58
2023/02/11 21:52:52;;;;;;;;;23.25;20.25;;;;;;;;5037067;28;51215;-58
2023/02/11 21:55:37;;;;;;;;;24.75;20.50;;;;;;;;5036591;28;51458;-58
2023/02/11 21:58:21;;;;;;;;;29.50;21.50;;;;;;;;5038508;28;51622;-58
2023/02/11 22:01:13;;;;;;;;;21.75;19.50;;;;;;;;5040119;28;51551;-58
2023/02/11 22:03:58;;;;;;;;;21.75;18.00;;;;;;;;5040181;28;51095;-59
2023/02/11 22:06:42;;;;;;;;;24.75;21.00;;;;;;;;5040107;28;51142;-58
2023/02/11 22:09:26;;;;;;;;;24.50;18.25;;;;;;;;5039206;28;51426;-59
2023/02/11 22:12:11;;;;;;;;;27.00;22.00;;;;;;;;5039704;28;51443;-59
2023/02/11 22:14:55;;;;;;;;;31.25;23.75;;;;;;;;5038699;28;51147;-58
2023/02/11 22:17:39;;;;;;;;;25.50;18.75;;;;;;;;5039767;28;51130;-58
2023/02/11 22:20:24;;;;;;;;;20.75;19.25;;;;;;;;5039232;28;52234;-58
2023/02/11 22:23:08;;;;;;;;;22.75;21.75;;;;;;;;5039509;28;51137;-59
2023/02/11 22:25:53;;;;;;;;;23.75;19.25;;;;;;;;5038940;28;51497;-58
2023/02/11 22:28:39;;;;;;;;;24.25;16.00;;;;;;;;5039415;28;51115;-59
2023/02/11 22:31:28;;;;;;;;;27.50;21.00;;;;;;;;5039424;28;51203;-58
2023/02/11 22:34:12;;;;;;;;;28.75;25.25;;;;;;;;5038246;28;51306;-58
2023/02/11 22:36:56;;;;;;;;;25.50;23.25;;;;;;;;5039730;28;51142;-58
2023/02/11 22:39:41;;;;;;;;;19.75;18.75;;;;;;;;5038345;28;51044;-57
2023/02/11 22:42:25;;;;;;;;;21.50;20.50;;;;;;;;5038124;28;51056;-57
2023/02/11 22:45:10;;;;;;;;;20.75;19.75;;;;;;;;5039234;28;52123;-57
2023/02/11 22:47:54;;;;;;;;;24.50;21.25;;;;;;;;5038762;28;51162;-58
2023/02/11 22:50:39;;;;;;;;;20.25;17.25;;;;;;;;5038825;28;52255;-57
2023/02/11 22:53:24;;;;;;;;;23.50;20.50;;;;;;;;5038693;28;51166;-57
2023/02/11 22:56:13;;;;;;;;;23.75;20.00;;;;;;;;5039609;28;51011;-58
2023/02/11 22:58:58;;;;;;;;;21.75;20.75;;;;;;;;5037516;28;51040;-58
2023/02/11 23:01:43;;;;;;;;;22.25;17.25;;;;;;;;5038248;28;51505;-56
2023/02/11 23:04:27;;;;;;;;;24.75;20.00;;;;;;;;5038992;28;51262;-58
2023/02/11 23:07:12;;;;;;;;;20.75;18.25;;;;;;;;5039069;28;51170;-58
2023/02/11 23:09:56;;;;;;;;;23.25;19.50;;;;;;;;5037751;28;51226;-57
2023/02/11 23:12:41;;;;;;;;;24.00;18.25;;;;;;;;5038353;28;51173;-57
2023/02/11 23:15:25;;;;;;;;;23.25;21.00;;;;;;;;5023552;28;51079;-58
2023/02/11 23:18:11;;;;;;;;;24.50;21.25;;;;;;;;5038726;28;51153;-57
2023/02/11 23:20:55;;;;;;;;;27.00;19.75;;;;;;;;5038708;28;51155;-57
2023/02/11 23:23:39;;;;;;;;;25.25;20.25;;;;;;;;5038037;28;51195;-58
2023/02/11 23:26:24;;;;;;;;;28.50;21.50;;;;;;;;5036660;28;51547;-58
2023/02/11 23:29:09;;;;;;;;;30.25;24.00;;;;;;;;5035636;28;51213;-57
2023/02/11 23:31:53;;;;;;;;;20.75;20.75;;;;;;;;5038627;28;51161;-57
2023/02/11 23:34:37;;;;;;;;;23.50;20.50;;;;;;;;5038146;28;51100;-58
2023/02/11 23:37:22;;;;;;;;;26.00;22.50;;;;;;;;5038474;28;51761;-57
2023/02/11 23:40:06;;;;;;;;;23.50;19.50;;;;;;;;5038394;28;51116;-58
2023/02/11 23:42:51;;;;;;;;;22.50;19.75;;;;;;;;5036971;28;51153;-57
2023/02/11 23:45:35;;;;;;;;;23.00;19.00;;;;;;;;5036814;28;51187;-57
2023/02/11 23:48:19;;;;;;;;;25.50;18.50;;;;;;;;5038061;28;51340;-58
2023/02/11 23:51:05;;;;;;;;;26.75;22.50;;;;;;;;5038087;28;51097;-58
2023/02/11 23:53:49;;;;;;;;;21.00;18.00;;;;;;;;5037295;28;51101;-58
2023/02/11 23:56:35;;;;;;;;;24.75;21.75;;;;;;;;5038315;28;51191;-57
2023/02/11 23:59:19;;;;;;;;;21.75;18.75;;;;;;;;5037764;28;52027;-57
